Flight Track Log - Related Links

Times and Time Zones

All times are in EDT time to prevent confusion due to time zone crossing. See the AFR385 flight status page for this flight to view local times or setup timezone preferences in your user account.

Time Position Orientation Groundspeed Altitude Reporting Facility
EDT Latitude Longitude Course Direction KTS MPH feet Rate Location/Type
Thu 07:39:32 PM 11.4492 -66.1692 42° Northeast  Level FlightAware Approximate
Thu 07:40:32 PM 11.5504 -66.0803 42° Northeast  Level FlightAware Approximate
Thu 07:41:32 PM 11.6472 -65.9861 42° Northeast  Level FlightAware Approximate
Thu 07:42:32 PM 11.7458 -65.8938 42° Northeast  Level FlightAware Approximate
Thu 07:43:32 PM 11.8445 -65.8015 42° Northeast  Level FlightAware Approximate
Thu 07:44:32 PM 11.9461 -65.7135 42° Northeast  Level FlightAware Approximate
Thu 07:45:32 PM 12.0451 -65.6216 42° Northeast  Level FlightAware Approximate
Thu 07:46:32 PM 12.1426 -65.5279 42° Northeast  Level FlightAware Approximate
Thu 07:47:32 PM 12.2407 -65.4348 42° Northeast  Level FlightAware Approximate
Thu 07:48:32 PM 12.3388 -65.3417 42° Northeast  Level FlightAware Approximate
Thu 07:49:32 PM 12.4368 -65.2484 42° Northeast  Level FlightAware Approximate
Thu 07:50:32 PM 12.5348 -65.1551 42° Northeast  Level FlightAware Approximate
Thu 07:51:32 PM 12.6327 -65.0618 42° Northeast  Level FlightAware Approximate
Thu 07:52:32 PM 12.7306 -64.9683 42° Northeast  Level FlightAware Approximate
Thu 07:53:32 PM 12.8285 -64.8748 42° Northeast  Level FlightAware Approximate
Thu 07:54:32 PM 12.9264 -64.7812 42° Northeast  Level FlightAware Approximate
Thu 07:55:32 PM 13.0242 -64.6875 42° Northeast  Level FlightAware Approximate
Thu 07:56:32 PM 13.1220 -64.5938 42° Northeast  Level FlightAware Approximate
Thu 07:57:32 PM 13.2198 -64.5000 42° Northeast  Level FlightAware Approximate
Thu 07:58:32 PM 13.3175 -64.4061 42° Northeast  Level FlightAware Approximate
Thu 07:59:32 PM 13.4152 -64.3122 42° Northeast  Level FlightAware Approximate
Thu 08:00:32 PM 13.5128 -64.2181 42° Northeast  Level FlightAware Approximate
Thu 08:01:32 PM 13.6104 -64.1240 42° Northeast  Level FlightAware Approximate
Thu 08:02:32 PM 13.7087 -64.0306 42° Northeast  Level FlightAware Approximate
Thu 08:03:32 PM 13.8062 -63.9363 42° Northeast  Level FlightAware Approximate
Thu 08:04:32 PM 13.9037 -63.8420 42° Northeast  Level FlightAware Approximate
Thu 08:05:32 PM 14.0011 -63.7475 42° Northeast  Level FlightAware Approximate
Thu 08:06:32 PM 14.0985 -63.6530 41° Northeast  Level FlightAware Approximate
Thu 08:07:32 PM 14.2018 -63.5660 42° Northeast  Level FlightAware Approximate
Thu 08:08:32 PM 14.2750 -63.4504 41° Northeast  Level FlightAware Approximate
Thu 08:09:32 PM 14.3480 -63.3347 41° Northeast  Level FlightAware Approximate
Thu 08:10:32 PM 14.4210 -63.2190 40° Northeast  Level FlightAware Approximate
Thu 08:11:32 PM 14.4940 -63.1032 40° Northeast  Level FlightAware Approximate
Thu 08:12:32 PM 14.5669 -62.9873 39° Northeast  Level FlightAware Approximate
Thu 08:13:32 PM 14.6397 -62.8713 39° Northeast  Level FlightAware Approximate
Thu 08:14:32 PM 14.7125 -62.7553 38° Northeast  Level FlightAware Approximate
Thu 08:15:32 PM 14.7852 -62.6392 38° Northeast  Level FlightAware Approximate
Thu 08:16:32 PM 14.8579 -62.5230 37° Northeast  Level FlightAware Approximate
Thu 08:17:32 PM 14.9305 -62.4067 37° Northeast  Level FlightAware Approximate
Thu 08:18:32 PM 15.0031 -62.2904 36° Northeast  Level FlightAware Approximate
Thu 08:19:32 PM 15.0756 -62.1739 35° Northeast  Level FlightAware Approximate
Thu 08:20:32 PM 15.1480 -62.0574 34° Northeast  Level FlightAware Approximate
Thu 08:21:32 PM 15.2204 -61.9408 34° Northeast  Level FlightAware Approximate
Thu 08:22:32 PM 15.2927 -61.8242 33° Northeast  Level FlightAware Approximate
Thu 08:23:32 PM 15.3649 -61.7074 32° Northeast  Level FlightAware Approximate
Thu 08:24:32 PM 15.4371 -61.5906 31° Northeast  Level FlightAware Approximate
Thu 08:25:32 PM 15.5092 -61.4737 29° Northeast  Level FlightAware Approximate
Thu 08:26:32 PM 15.5813 -61.3567 28° Northeast  Level FlightAware Approximate
Thu 08:27:32 PM 15.6533 -61.2396 27° Northeast  Level FlightAware Approximate
Thu 08:28:32 PM 15.7253 -61.1224 25° Northeast  Level FlightAware Approximate
Thu 08:29:32 PM 15.7972 -61.0052 23° Northeast  Level FlightAware Approximate
Thu 08:30:32 PM 15.8690 -60.8879 22° Northeast  Level FlightAware Approximate
Thu 08:31:32 PM 15.9407 -60.7705 20° North  Level FlightAware Approximate
Thu 08:32:32 PM 16.0124 -60.6530 17° North  Level FlightAware Approximate
Thu 08:33:32 PM 16.0841 -60.5354 15° North  Level FlightAware Approximate
Thu 08:34:32 PM 16.1556 -60.4177 12° North  Level FlightAware Approximate
Thu 08:35:32 PM 16.2271 -60.3000 North  Level FlightAware Approximate
Thu 08:36:32 PM 16.2986 -60.1821 North  Level FlightAware Approximate
Thu 08:37:32 PM 16.3699 -60.0642 North  Level FlightAware Approximate
Thu 08:38:32 PM 16.4463 -59.9497 358° North  Level FlightAware Approximate
Thu 08:39:32 PM 16.5227 -59.8352 354° North  Level FlightAware Approximate
Thu 08:40:32 PM 16.5990 -59.7205 349° North  Level FlightAware Approximate
Thu 08:41:32 PM 16.6752 -59.6057 344° North  Level FlightAware Approximate
Thu 08:42:32 PM 16.7513 -59.4909 339° North  Level FlightAware Approximate
Thu 08:43:32 PM 16.8274 -59.3759 333° Northwest  Level FlightAware Approximate
Thu 08:44:32 PM 16.9085 -59.2575 327° Northwest  Level FlightAware Approximate
Thu 08:45:32 PM 16.9895 -59.1389 321° Northwest  Level FlightAware Approximate
Thu 08:46:32 PM 17.0704 -59.0202 315° West  Level FlightAware Approximate
Thu 08:47:32 PM 17.1513 -58.9014 309° West  Level FlightAware Approximate
Thu 08:48:32 PM 17.2321 -58.7825 304° West  Level FlightAware Approximate
Thu 08:49:32 PM 17.3128 -58.6636 299° West  Level FlightAware Approximate
Thu 08:50:32 PM 17.3864 -58.5549 294° West  Level FlightAware Approximate
Thu 08:51:32 PM 17.4600 -58.4461 290° West  Level FlightAware Approximate
Thu 08:52:32 PM 17.5335 -58.3373 287° West  Level FlightAware Approximate
Thu 08:53:32 PM 17.6069 -58.2283 283° West  Level FlightAware Approximate
Thu 08:54:32 PM 17.6803 -58.1193 280° West  Level FlightAware Approximate
Thu 08:55:32 PM 17.7536 -58.0102 278° West  Level FlightAware Approximate
Thu 08:56:32 PM 17.8268 -57.9010 275° West  Level FlightAware Approximate
Thu 08:57:32 PM 17.9000 -57.7917 273° West  Level FlightAware Approximate
Thu 08:58:32 PM 17.9732 -57.6823 271° West  Level FlightAware Approximate
Thu 08:59:32 PM 18.0462 -57.5728 269° West  Level FlightAware Approximate
Thu 09:00:32 PM 18.1192 -57.4633 268° West  Level FlightAware Approximate
Thu 09:01:32 PM 18.1922 -57.3536 266° West  Level FlightAware Approximate
Thu 09:02:32 PM 18.2651 -57.2439 265° West  Level FlightAware Approximate
Thu 09:03:32 PM 18.3379 -57.1340 263° West  Level FlightAware Approximate
Thu 09:04:32 PM 18.4106 -57.0241 262° West  Level FlightAware Approximate
Thu 09:05:32 PM 18.4833 -56.9141 261° West  Level FlightAware Approximate
Thu 09:06:32 PM 18.5559 -56.8039 260° West  Level FlightAware Approximate
Thu 09:07:32 PM 18.6285 -56.6937 259° West  Level FlightAware Approximate
Thu 09:08:32 PM 18.7010 -56.5834 258° West  Level FlightAware Approximate
Thu 09:09:32 PM 18.7734 -56.4730 258° West  Level FlightAware Approximate
Thu 09:10:32 PM 18.8458 -56.3625 257° West  Level FlightAware Approximate
Thu 09:11:32 PM 18.9181 -56.2519 256° West  Level FlightAware Approximate
Thu 09:12:32 PM 18.9903 -56.1412 255° West  Level FlightAware Approximate
Thu 09:13:32 PM 19.0625 -56.0304 255° West  Level FlightAware Approximate
Thu 09:14:32 PM 19.1346 -55.9196 254° West  Level FlightAware Approximate
Thu 09:15:32 PM 19.2067 -55.8086 254° West  Level FlightAware Approximate
Thu 09:16:32 PM 19.2786 -55.6975 253° West  Level FlightAware Approximate
Thu 09:17:32 PM 19.3505 -55.5863 253° West  Level FlightAware Approximate
Thu 09:18:32 PM 19.4224 -55.4751 252° West  Level FlightAware Approximate
Thu 09:19:32 PM 19.4942 -55.3637 252° West  Level FlightAware Approximate
Thu 09:20:32 PM 19.5658 -55.2522 252° West  Level FlightAware Approximate
Thu 09:21:32 PM 19.6375 -55.1407 251° West  Level FlightAware Approximate
Thu 09:22:32 PM 19.7090 -55.0290 251° West  Level FlightAware Approximate
Thu 09:23:32 PM 19.7806 -54.9172 251° West  Level FlightAware Approximate
Thu 09:24:32 PM 19.8520 -54.8054 250° West  Level FlightAware Approximate
Thu 09:25:32 PM 19.9233 -54.6934 250° West  Level FlightAware Approximate
Thu 09:26:32 PM 19.9946 -54.5813 250° West  Level FlightAware Approximate
Thu 09:27:15 PM 18.0000 -60.0000 65° Northeast 502 578 35,000  Level New York Oceanic (ODAPS)
Thu 09:33:32 PM 18.3500 -59.2000 65° Northeast 504 580 35,000  Level New York Oceanic (ODAPS)
Thu 09:35:38 PM 18.4667 -58.9333 66° East 476 548 35,000  Level New York Oceanic (ODAPS)
Thu 09:53:47 PM 19.4333 -56.6167 66° East 505 581 35,000  Level New York Oceanic (ODAPS)
Thu 10:14:04 PM 20.5167 -53.9500 67° East 511 588 35,000 25 Level New York Oceanic (ODAPS)
Thu 10:34:18 PM 21.6167 -51.0333 68° East 533 613 36,000 37 Climbing New York Oceanic (ODAPS)
Thu 10:41:26 PM 22.0000 -50.0000 50° Northeast 545 627 36,000  Level New York Oceanic (ODAPS)
Thu 10:54:54 PM 23.3333 -48.2500 51° Northeast 551 634 36,000  Level New York Oceanic (ODAPS)
Thu 11:14:50 PM 25.2333 -45.6333 52° Northeast 543 625 36,000  Level New York Oceanic (ODAPS)
Thu 11:35:07 PM 27.0667 -42.9833 54° Northeast 539 620 36,000  Level New York Oceanic (ODAPS)
Thu 11:35:32 PM 27.1478 -42.8596 53° Northeast 543 625 36,000  Level FlightAware Transoceanic
Thu 11:36:32 PM 27.2397 -42.7221 53° Northeast 543 625 36,000  Level FlightAware Transoceanic
Thu 11:37:32 PM 27.3314 -42.5844 53° Northeast 543 625 36,000  Level FlightAware Transoceanic
Thu 11:38:32 PM 27.4230 -42.4465 53° Northeast 543 625 36,000  Level FlightAware Transoceanic
Thu 11:42:32 PM 27.7359 -41.9738 53° Northeast 539 620 36,000  Level FlightAware Transoceanic
Thu 11:43:32 PM 27.8242 -41.8388 54° Northeast 539 620 36,000  Level FlightAware Transoceanic
Thu 11:44:32 PM 27.9123 -41.7037 54° Northeast 539 620 36,000  Level FlightAware Transoceanic
Thu 11:45:32 PM 28.0004 -41.5683 54° Northeast 539 620 36,000  Level FlightAware Transoceanic
Thu 11:46:32 PM 28.0882 -41.4327 54° Northeast 539 620 36,000  Level FlightAware Transoceanic
Thu 11:47:32 PM 28.1760 -41.2969 54° Northeast 539 620 36,000  Level FlightAware Transoceanic
Thu 11:48:32 PM 28.2636 -41.1609 54° Northeast 539 620 36,000  Level FlightAware Transoceanic
Thu 11:49:32 PM 28.3511 -41.0246 54° Northeast 539 620 36,000  Level FlightAware Transoceanic
Thu 11:50:32 PM 28.4385 -40.8881 54° Northeast 539 620 36,000  Level FlightAware Transoceanic
Thu 11:51:32 PM 28.5257 -40.7514 54° Northeast 539 620 36,000  Level FlightAware Transoceanic
Thu 11:52:32 PM 28.6127 -40.6144 54° Northeast 539 620 36,000  Level FlightAware Transoceanic
Thu 11:53:32 PM 28.6997 -40.4773 54° Northeast 539 620 36,000  Level FlightAware Transoceanic
Thu 11:54:32 PM 28.7865 -40.3399 54° Northeast 539 620 36,000  Level FlightAware Transoceanic
Thu 11:55:32 PM 28.8731 -40.2023 54° Northeast 539 620 36,000  Level FlightAware Transoceanic
Thu 11:56:32 PM 28.9597 -40.0644 59° Northeast 539 620 36,000  Level FlightAware Transoceanic
Thu 11:57:32 PM 29.0376 -39.9175 63° Northeast 539 620 36,000  Level FlightAware Transoceanic
Thu 11:58:32 PM 29.1079 -39.7627 63° Northeast 539 620 36,000  Level FlightAware Transoceanic
Thu 11:59:32 PM 29.1780 -39.6077 63° Northeast 539 620 36,000  Level FlightAware Transoceanic
Fri 12:00:32 AM 29.2480 -39.4525 63° Northeast 539 620 36,000  Level FlightAware Transoceanic
Fri 12:01:32 AM 29.3177 -39.2971 63° Northeast 539 620 36,000  Level FlightAware Transoceanic
Fri 12:02:32 AM 29.3873 -39.1414 63° Northeast 539 620 36,000  Level FlightAware Transoceanic
Fri 12:03:32 AM 29.4567 -38.9856 63° Northeast 539 620 36,000  Level FlightAware Transoceanic
Fri 12:04:32 AM 29.5260 -38.8295 63° Northeast 539 620 36,000  Level FlightAware Transoceanic
Fri 12:05:32 AM 29.5950 -38.6732 63° Northeast 539 620 36,000  Level FlightAware Transoceanic
Fri 12:06:32 AM 29.6639 -38.5167 63° Northeast 539 620 36,000  Level FlightAware Transoceanic
Fri 12:07:32 AM 29.7325 -38.3600 63° Northeast 539 620 36,000  Level FlightAware Transoceanic
Fri 12:08:32 AM 29.8011 -38.2031 63° Northeast 539 620 36,000  Level FlightAware Transoceanic
Fri 12:09:32 AM 29.8694 -38.0460 63° Northeast 539 620 36,000  Level FlightAware Transoceanic
Fri 12:10:32 AM 29.9375 -37.8886 64° Northeast 539 620 36,000  Level FlightAware Transoceanic
Fri 12:11:32 AM 30.0054 -37.7310 64° Northeast 539 620 36,000  Level FlightAware Transoceanic
Fri 12:12:32 AM 30.0732 -37.5732 64° Northeast 539 620 36,000  Level FlightAware Transoceanic
Fri 12:13:32 AM 30.1407 -37.4152 64° Northeast 539 620 36,000  Level FlightAware Transoceanic
Fri 12:14:32 AM 30.2081 -37.2570 64° Northeast 539 620 36,000  Level FlightAware Transoceanic
Fri 12:15:32 AM 30.2753 -37.0986 64° Northeast 539 620 36,000  Level FlightAware Transoceanic
Fri 12:16:32 AM 30.3423 -36.9399 64° Northeast 539 620 36,000  Level FlightAware Transoceanic
Fri 12:17:32 AM 30.4090 -36.7811 64° Northeast 539 620 36,000  Level FlightAware Transoceanic
Fri 12:18:32 AM 30.4757 -36.6220 64° Northeast 539 620 36,000  Level FlightAware Transoceanic
Fri 12:19:32 AM 30.5421 -36.4627 64° Northeast 539 620 36,000  Level FlightAware Transoceanic
Fri 12:20:32 AM 30.6083 -36.3032 64° Northeast 539 620 36,000  Level FlightAware Transoceanic
Fri 12:21:32 AM 30.6743 -36.1434 64° Northeast 539 620 36,000  Level FlightAware Transoceanic
Fri 12:22:32 AM 30.7401 -35.9835 64° Northeast 539 620 36,000  Level FlightAware Transoceanic
Fri 12:23:32 AM 30.8058 -35.8233 65° Northeast 539 620 36,000  Level FlightAware Transoceanic
Fri 12:24:32 AM 30.8712 -35.6629 65° Northeast 539 620 36,000  Level FlightAware Transoceanic
Fri 12:25:32 AM 30.9364 -35.5023 65° Northeast 539 620 36,000  Level FlightAware Transoceanic
Fri 12:26:32 AM 31.0015 -35.3415 65° Northeast 539 620 36,000  Level FlightAware Transoceanic
Fri 12:27:32 AM 31.0663 -35.1804 65° Northeast 539 620 36,000  Level FlightAware Transoceanic
Fri 12:28:32 AM 31.1309 -35.0191 65° Northeast 539 620 36,000  Level FlightAware Transoceanic
Fri 12:29:32 AM 31.1954 -34.8577 65° Northeast 539 620 36,000  Level FlightAware Transoceanic
Fri 12:30:32 AM 31.2596 -34.6959 65° Northeast 539 620 36,000  Level FlightAware Transoceanic
Fri 12:31:32 AM 31.3236 -34.5340 65° Northeast 539 620 36,000  Level FlightAware Transoceanic
Fri 12:32:32 AM 31.3874 -34.3719 65° Northeast 539 620 36,000  Level FlightAware Transoceanic
Fri 12:33:32 AM 31.4511 -34.2095 65° Northeast 539 620 36,000  Level FlightAware Transoceanic
Fri 12:34:32 AM 31.5145 -34.0469 65° Northeast 539 620 36,000  Level FlightAware Transoceanic
Fri 12:35:32 AM 31.5777 -33.8841 66° East 539 620 36,000  Level FlightAware Transoceanic
Fri 12:36:32 AM 31.6407 -33.7211 66° East 539 620 36,000  Level FlightAware Transoceanic
Fri 12:37:32 AM 31.7035 -33.5578 66° East 539 620 36,000  Level FlightAware Transoceanic
Fri 12:38:32 AM 31.7661 -33.3943 66° East 539 620 36,000  Level FlightAware Transoceanic
Fri 12:39:32 AM 31.8285 -33.2307 66° East 539 620 36,000  Level FlightAware Transoceanic
Fri 12:40:32 AM 31.8906 -33.0667 66° East 539 620 36,000  Level FlightAware Transoceanic
Fri 12:41:32 AM 31.9526 -32.9026 66° East 539 620 36,000  Level FlightAware Transoceanic
Fri 12:42:32 AM 32.0143 -32.7382 66° East 539 620 36,000  Level FlightAware Transoceanic
Fri 12:43:32 AM 32.0759 -32.5737 66° East 539 620 36,000  Level FlightAware Transoceanic
Fri 12:44:32 AM 32.1372 -32.4089 66° East 539 620 36,000  Level FlightAware Transoceanic
Fri 12:45:32 AM 32.1983 -32.2439 66° East 539 620 36,000  Level FlightAware Transoceanic
Fri 12:46:32 AM 32.2592 -32.0786 67° East 539 620 36,000  Level FlightAware Transoceanic
Fri 12:47:32 AM 32.3199 -31.9131 67° East 539 620 36,000  Level FlightAware Transoceanic
Fri 12:48:32 AM 32.3803 -31.7475 67° East 539 620 36,000  Level FlightAware Transoceanic
Fri 12:49:32 AM 32.4406 -31.5816 67° East 539 620 36,000  Level FlightAware Transoceanic
Fri 12:50:32 AM 32.5006 -31.4154 67° East 539 620 36,000  Level FlightAware Transoceanic
Fri 12:51:32 AM 32.5604 -31.2491 67° East 539 620 36,000  Level FlightAware Transoceanic
Fri 12:52:32 AM 32.6200 -31.0825 67° East 539 620 36,000  Level FlightAware Transoceanic
Fri 12:53:32 AM 32.6794 -30.9157 67° East 539 620 36,000  Level FlightAware Transoceanic
Fri 12:54:32 AM 32.7385 -30.7487 67° East 539 620 36,000  Level FlightAware Transoceanic
Fri 12:55:32 AM 32.7975 -30.5815 67° East 539 620 36,000  Level FlightAware Transoceanic
Fri 12:56:32 AM 32.8562 -30.4140 67° East 539 620 36,000  Level FlightAware Transoceanic
Fri 12:57:32 AM 32.9146 -30.2463 67° East 539 620 36,000  Level FlightAware Transoceanic
Fri 12:58:32 AM 32.9729 -30.0784 62° Northeast 539 620 36,000  Level FlightAware Transoceanic
Fri 12:59:32 AM 33.0327 -29.9427 56° Northeast  Level FlightAware Approximate
Fri 01:00:32 AM 33.1056 -29.8153 56° Northeast  Level FlightAware Approximate
Fri 01:01:32 AM 33.1784 -29.6877 56° Northeast  Level FlightAware Approximate
Fri 01:02:32 AM 33.2510 -29.5599 56° Northeast  Level FlightAware Approximate
Fri 01:03:32 AM 33.3235 -29.4319 56° Northeast  Level FlightAware Approximate
Fri 01:04:32 AM 33.3959 -29.3036 56° Northeast  Level FlightAware Approximate
Fri 01:05:32 AM 33.4682 -29.1752 56° Northeast  Level FlightAware Approximate
Fri 01:06:32 AM 33.5403 -29.0465 56° Northeast  Level FlightAware Approximate
Fri 01:07:32 AM 33.6123 -28.9176 56° Northeast  Level FlightAware Approximate
Fri 01:08:32 AM 33.6841 -28.7885 56° Northeast  Level FlightAware Approximate
Fri 01:09:32 AM 33.7558 -28.6592 56° Northeast  Level FlightAware Approximate
Fri 01:10:32 AM 33.8274 -28.5297 56° Northeast  Level FlightAware Approximate
Fri 01:11:32 AM 33.8988 -28.3999 56° Northeast  Level FlightAware Approximate
Fri 01:12:32 AM 33.9701 -28.2700 52° Northeast  Level FlightAware Approximate
Fri 01:13:32 AM 34.0490 -28.1464 52° Northeast  Level FlightAware Approximate
Fri 01:14:32 AM 34.1278 -28.0227 52° Northeast  Level FlightAware Approximate
Fri 01:15:32 AM 34.2065 -27.8987 53° Northeast  Level FlightAware Approximate
Fri 01:16:32 AM 34.2850 -27.7745 53° Northeast  Level FlightAware Approximate
Fri 01:17:32 AM 34.3634 -27.6500 53° Northeast  Level FlightAware Approximate
Fri 01:18:32 AM 34.4417 -27.5253 53° Northeast  Level FlightAware Approximate
Fri 01:19:32 AM 34.5198 -27.4004 53° Northeast  Level FlightAware Approximate
Fri 01:20:32 AM 34.5979 -27.2752 53° Northeast  Level FlightAware Approximate
Fri 01:21:32 AM 34.6758 -27.1498 53° Northeast  Level FlightAware Approximate
Fri 01:22:32 AM 34.7535 -27.0242 53° Northeast  Level FlightAware Approximate
Fri 01:23:32 AM 34.8312 -26.8983 53° Northeast  Level FlightAware Approximate
Fri 01:24:32 AM 34.9087 -26.7722 53° Northeast  Level FlightAware Approximate
Fri 01:25:32 AM 34.9860 -26.6459 53° Northeast  Level FlightAware Approximate
Fri 01:26:32 AM 35.0633 -26.5193 53° Northeast  Level FlightAware Approximate
Fri 01:27:32 AM 35.1404 -26.3925 53° Northeast  Level FlightAware Approximate
Fri 01:28:32 AM 35.2174 -26.2654 53° Northeast  Level FlightAware Approximate
Fri 01:29:32 AM 35.2942 -26.1381 54° Northeast  Level FlightAware Approximate
Fri 01:30:32 AM 35.3709 -26.0106 54° Northeast  Level FlightAware Approximate
Fri 01:31:32 AM 35.4475 -25.8828 54° Northeast  Level FlightAware Approximate
Fri 01:32:32 AM 35.5239 -25.7548 54° Northeast  Level FlightAware Approximate
Fri 01:33:32 AM 35.6003 -25.6265 54° Northeast  Level FlightAware Approximate
Fri 01:34:32 AM 35.6764 -25.4980 54° Northeast  Level FlightAware Approximate
Fri 01:35:32 AM 35.7525 -25.3692 54° Northeast  Level FlightAware Approximate
Fri 01:36:32 AM 35.8284 -25.2402 54° Northeast  Level FlightAware Approximate
Fri 01:37:32 AM 35.9041 -25.1110 54° Northeast  Level FlightAware Approximate
Fri 01:38:32 AM 35.9798 -24.9815 54° Northeast  Level FlightAware Approximate
Fri 01:39:32 AM 36.0552 -24.8517 54° Northeast  Level FlightAware Approximate
Fri 01:40:32 AM 36.1306 -24.7217 54° Northeast  Level FlightAware Approximate
Fri 01:41:32 AM 36.2058 -24.5915 54° Northeast  Level FlightAware Approximate
Fri 01:42:32 AM 36.2808 -24.4610 55° Northeast  Level FlightAware Approximate
Fri 01:43:32 AM 36.3558 -24.3302 55° Northeast  Level FlightAware Approximate
Fri 01:44:32 AM 36.4305 -24.1992 55° Northeast  Level FlightAware Approximate
Fri 01:45:32 AM 36.5052 -24.0679 55° Northeast  Level FlightAware Approximate
Fri 01:46:32 AM 36.5797 -23.9364 55° Northeast  Level FlightAware Approximate
Fri 01:47:32 AM 36.6540 -23.8047 55° Northeast  Level FlightAware Approximate
Fri 01:48:32 AM 36.7282 -23.6727 55° Northeast  Level FlightAware Approximate
Fri 01:49:32 AM 36.8022 -23.5404 55° Northeast  Level FlightAware Approximate
Fri 01:50:32 AM 36.8761 -23.4079 55° Northeast  Level FlightAware Approximate
Fri 01:51:32 AM 36.9499 -23.2751 55° Northeast  Level FlightAware Approximate
Fri 01:52:32 AM 37.0235 -23.1420 55° Northeast  Level FlightAware Approximate
Fri 01:53:32 AM 37.0970 -23.0087 55° Northeast  Level FlightAware Approximate
Fri 01:54:32 AM 37.1703 -22.8752 55° Northeast  Level FlightAware Approximate
Fri 01:55:32 AM 37.2434 -22.7414 56° Northeast  Level FlightAware Approximate
Fri 01:56:32 AM 37.3164 -22.6073 56° Northeast  Level FlightAware Approximate
Fri 01:57:32 AM 37.3893 -22.4729 56° Northeast  Level FlightAware Approximate
Fri 01:58:32 AM 37.4620 -22.3383 56° Northeast  Level FlightAware Approximate
Fri 01:59:32 AM 37.5346 -22.2035 56° Northeast  Level FlightAware Approximate
Fri 02:00:32 AM 37.6070 -22.0684 56° Northeast  Level FlightAware Approximate
Fri 02:01:32 AM 37.6792 -21.9330 56° Northeast  Level FlightAware Approximate
Fri 02:02:32 AM 37.7513 -21.7973 56° Northeast  Level FlightAware Approximate
Fri 02:03:32 AM 37.8232 -21.6614 56° Northeast  Level FlightAware Approximate
Fri 02:04:32 AM 37.8950 -21.5252 56° Northeast  Level FlightAware Approximate
Fri 02:05:32 AM 37.9666 -21.3888 56° Northeast  Level FlightAware Approximate
Fri 02:06:32 AM 38.0381 -21.2521 56° Northeast  Level FlightAware Approximate
Fri 02:07:32 AM 38.1094 -21.1151 57° Northeast  Level FlightAware Approximate
Fri 02:08:32 AM 38.1806 -20.9779 57° Northeast  Level FlightAware Approximate
Fri 02:09:32 AM 38.2515 -20.8404 57° Northeast  Level FlightAware Approximate
Fri 02:10:32 AM 38.3224 -20.7026 57° Northeast  Level FlightAware Approximate
Fri 02:11:32 AM 38.3930 -20.5645 57° Northeast  Level FlightAware Approximate
Fri 02:12:32 AM 38.4635 -20.4262 57° Northeast  Level FlightAware Approximate
Fri 02:13:32 AM 38.5339 -20.2876 57° Northeast  Level FlightAware Approximate
Fri 02:14:32 AM 38.6040 -20.1488 57° Northeast  Level FlightAware Approximate
Fri 02:15:32 AM 38.6741 -20.0096 57° Northeast  Level FlightAware Approximate
Fri 02:16:32 AM 38.7439 -19.8702 63° Northeast  Level FlightAware Approximate
Fri 02:17:32 AM 38.8021 -19.7222 63° Northeast  Level FlightAware Approximate
Fri 02:18:32 AM 38.8601 -19.5739 63° Northeast  Level FlightAware Approximate
Fri 02:19:32 AM 38.9179 -19.4253 63° Northeast  Level FlightAware Approximate
Fri 02:20:32 AM 38.9755 -19.2765 64° Northeast  Level FlightAware Approximate
Fri 02:21:32 AM 39.0329 -19.1275 64° Northeast  Level FlightAware Approximate
Fri 02:22:32 AM 39.0901 -18.9782 64° Northeast  Level FlightAware Approximate
Fri 02:23:32 AM 39.1472 -18.8287 64° Northeast  Level FlightAware Approximate
Fri 02:24:32 AM 39.2040 -18.6789 64° Northeast  Level FlightAware Approximate
Fri 02:25:32 AM 39.2607 -18.5289 64° Northeast  Level FlightAware Approximate
Fri 02:26:32 AM 39.3172 -18.3786 64° Northeast  Level FlightAware Approximate
Fri 02:27:32 AM 39.3734 -18.2281 64° Northeast  Level FlightAware Approximate
Fri 02:28:32 AM 39.4295 -18.0774 64° Northeast  Level FlightAware Approximate
Fri 02:29:32 AM 39.4854 -17.9264 64° Northeast  Level FlightAware Approximate
Fri 02:30:32 AM 39.5411 -17.7752 65° Northeast  Level FlightAware Approximate
Fri 02:31:32 AM 39.5966 -17.6237 65° Northeast  Level FlightAware Approximate
Fri 02:32:32 AM 39.6519 -17.4720 65° Northeast  Level FlightAware Approximate
Fri 02:33:32 AM 39.7070 -17.3201 65° Northeast  Level FlightAware Approximate
Fri 02:34:32 AM 39.7619 -17.1679 65° Northeast  Level FlightAware Approximate
Fri 02:35:32 AM 39.8166 -17.0155 65° Northeast  Level FlightAware Approximate
Fri 02:36:32 AM 39.8711 -16.8628 65° Northeast  Level FlightAware Approximate
Fri 02:37:32 AM 39.9254 -16.7099 65° Northeast  Level FlightAware Approximate
Fri 02:38:32 AM 39.9795 -16.5567 65° Northeast  Level FlightAware Approximate
Fri 02:39:32 AM 40.0334 -16.4033 65° Northeast  Level FlightAware Approximate
Fri 02:40:32 AM 40.0871 -16.2497 66° East  Level FlightAware Approximate
Fri 02:41:32 AM 40.1406 -16.0958 66° East  Level FlightAware Approximate
Fri 02:42:32 AM 40.1939 -15.9416 66° East  Level FlightAware Approximate
Fri 02:43:32 AM 40.2469 -15.7873 66° East  Level FlightAware Approximate
Fri 02:44:32 AM 40.2998 -15.6327 66° East  Level FlightAware Approximate
Fri 02:45:32 AM 40.3525 -15.4778 66° East  Level FlightAware Approximate
Fri 02:46:32 AM 40.4049 -15.3227 66° East  Level FlightAware Approximate
Fri 02:47:32 AM 40.4572 -15.1674 66° East  Level FlightAware Approximate
Fri 02:48:32 AM 40.5093 -15.0118 51° Northeast  Level FlightAware Approximate
Fri 02:49:32 AM 40.5904 -14.8793 51° Northeast  Level FlightAware Approximate
Fri 02:50:32 AM 40.6713 -14.7465 51° Northeast  Level FlightAware Approximate
Fri 02:51:32 AM 40.7522 -14.6134 51° Northeast  Level FlightAware Approximate
Fri 02:52:32 AM 40.8328 -14.4800 51° Northeast  Level FlightAware Approximate
Fri 02:53:32 AM 40.9133 -14.3463 52° Northeast  Level FlightAware Approximate
Fri 02:54:32 AM 40.9937 -14.2122 52° Northeast  Level FlightAware Approximate
Fri 02:55:32 AM 41.0739 -14.0778 52° Northeast  Level FlightAware Approximate
Fri 02:56:32 AM 41.1539 -13.9430 52° Northeast  Level FlightAware Approximate
Fri 02:57:32 AM 41.2338 -13.8080 52° Northeast  Level FlightAware Approximate
Fri 02:58:32 AM 41.3136 -13.6726 52° Northeast  Level FlightAware Approximate
Fri 02:59:32 AM 41.3931 -13.5368 52° Northeast  Level FlightAware Approximate
Fri 03:00:32 AM 41.4725 -13.4008 52° Northeast  Level FlightAware Approximate
Fri 03:01:32 AM 41.5518 -13.2644 52° Northeast  Level FlightAware Approximate
Fri 03:02:32 AM 41.6309 -13.1277 52° Northeast  Level FlightAware Approximate
Fri 03:03:32 AM 41.7098 -12.9906 52° Northeast  Level FlightAware Approximate
Fri 03:04:32 AM 41.7886 -12.8532 53° Northeast  Level FlightAware Approximate
Fri 03:05:32 AM 41.8672 -12.7155 53° Northeast  Level FlightAware Approximate
Fri 03:06:32 AM 41.9456 -12.5774 53° Northeast  Level FlightAware Approximate
Fri 03:07:32 AM 42.0239 -12.4390 53° Northeast  Level FlightAware Approximate
Fri 03:08:32 AM 42.1020 -12.3002 53° Northeast  Level FlightAware Approximate
Fri 03:09:32 AM 42.1799 -12.1611 53° Northeast  Level FlightAware Approximate
Fri 03:10:32 AM 42.2577 -12.0217 53° Northeast  Level FlightAware Approximate
Fri 03:11:32 AM 42.3353 -11.8819 53° Northeast  Level FlightAware Approximate
Fri 03:12:32 AM 42.4127 -11.7418 53° Northeast  Level FlightAware Approximate
Fri 03:13:32 AM 42.4900 -11.6013 53° Northeast  Level FlightAware Approximate
Fri 03:14:32 AM 42.5670 -11.4605 53° Northeast  Level FlightAware Approximate
Fri 03:15:32 AM 42.6440 -11.3193 54° Northeast  Level FlightAware Approximate
Fri 03:16:32 AM 42.7207 -11.1778 54° Northeast  Level FlightAware Approximate
Fri 03:17:32 AM 42.7972 -11.0359 54° Northeast  Level FlightAware Approximate
Fri 03:18:32 AM 42.8736 -10.8937 54° Northeast  Level FlightAware Approximate
Fri 03:19:32 AM 42.9498 -10.7511 54° Northeast  Level FlightAware Approximate
Fri 03:20:32 AM 43.0259 -10.6082 54° Northeast  Level FlightAware Approximate
Fri 03:21:32 AM 43.1017 -10.4649 54° Northeast  Level FlightAware Approximate
Fri 03:22:32 AM 43.1774 -10.3213 54° Northeast  Level FlightAware Approximate
Fri 03:23:32 AM 43.2529 -10.1773 54° Northeast  Level FlightAware Approximate
Fri 03:24:32 AM 43.3282 -10.0329 53° Northeast  Level FlightAware Approximate
Fri 03:25:32 AM 43.4067 -9.8917 53° Northeast  Level FlightAware Approximate
Fri 03:26:32 AM 43.4851 -9.7500 53° Northeast  Level FlightAware Approximate
Fri 03:27:32 AM 43.5632 -9.6080 53° Northeast  Level FlightAware Approximate
Fri 03:28:32 AM 43.6412 -9.4657 53° Northeast  Level FlightAware Approximate
Fri 03:29:32 AM 43.7191 -9.3229 53° Northeast  Level FlightAware Approximate
Fri 03:30:32 AM 43.7967 -9.1798 53° Northeast  Level FlightAware Approximate
Fri 03:31:32 AM 43.8742 -9.0363 53° Northeast  Level FlightAware Approximate
Fri 03:32:32 AM 43.9514 -8.8925 53° Northeast  Level FlightAware Approximate
Fri 03:33:32 AM 44.0285 -8.7483 53° Northeast  Level FlightAware Approximate
Fri 03:34:32 AM 44.1055 -8.6037 54° Northeast  Level FlightAware Approximate
Fri 03:35:32 AM 44.1822 -8.4587 54° Northeast  Level FlightAware Approximate
Fri 03:36:32 AM 44.2588 -8.3133 54° Northeast  Level FlightAware Approximate
Fri 03:37:32 AM 44.3351 -8.1676 54° Northeast  Level FlightAware Approximate
Fri 03:38:32 AM 44.4113 -8.0215 54° Northeast  Level FlightAware Approximate
Fri 03:39:32 AM 44.4873 -7.8750 54° Northeast  Level FlightAware Approximate
Fri 03:40:32 AM 44.5631 -7.7281 54° Northeast  Level FlightAware Approximate
Fri 03:41:32 AM 44.6387 -7.5809 54° Northeast  Level FlightAware Approximate
Fri 03:42:32 AM 44.7142 -7.4332 54° Northeast  Level FlightAware Approximate
Fri 03:43:32 AM 44.7894 -7.2852 54° Northeast  Level FlightAware Approximate
Fri 03:44:32 AM 44.8644 -7.1368 55° Northeast  Level FlightAware Approximate
Fri 03:45:32 AM 44.9393 -6.9880 55° Northeast  Level FlightAware Approximate
Fri 03:46:32 AM 45.0140 -6.8388 55° Northeast  Level FlightAware Approximate
Fri 03:47:32 AM 45.0884 -6.6892 55° Northeast  Level FlightAware Approximate
Fri 03:48:32 AM 45.1627 -6.5393 55° Northeast  Level FlightAware Approximate
Fri 03:49:32 AM 45.2368 -6.3889 55° Northeast  Level FlightAware Approximate
Fri 03:50:32 AM 45.3106 -6.2382 55° Northeast  Level FlightAware Approximate
Fri 03:51:32 AM 45.3843 -6.0870 55° Northeast  Level FlightAware Approximate
Fri 03:52:32 AM 45.4578 -5.9355 55° Northeast  Level FlightAware Approximate
Fri 03:53:32 AM 45.5311 -5.7835 56° Northeast  Level FlightAware Approximate
Fri 03:54:32 AM 45.6042 -5.6312 56° Northeast  Level FlightAware Approximate
Fri 03:55:32 AM 45.6770 -5.4785 56° Northeast  Level FlightAware Approximate
Fri 03:56:32 AM 45.7497 -5.3254 56° Northeast  Level FlightAware Approximate
Fri 03:57:32 AM 45.8222 -5.1719 56° Northeast  Level FlightAware Approximate
Fri 03:58:32 AM 45.8944 -5.0179 56° Northeast  Level FlightAware Approximate
Fri 03:59:32 AM 45.9665 -4.8636 56° Northeast  Level FlightAware Approximate
Fri 04:00:32 AM 46.0383 -4.7089 56° Northeast  Level FlightAware Approximate
Fri 04:01:32 AM 46.1099 -4.5538 56° Northeast  Level FlightAware Approximate
Fri 04:02:32 AM 46.1814 -4.3982 57° Northeast  Level FlightAware Approximate
Fri 04:03:32 AM 46.2526 -4.2423 57° Northeast  Level FlightAware Approximate
Fri 04:04:32 AM 46.3241 -4.0848 57° Northeast  Level FlightAware Approximate
Fri 04:05:32 AM 46.3954 -3.9269 57° Northeast  Level FlightAware Approximate
Fri 04:06:32 AM 46.4665 -3.7686 57° Northeast  Level FlightAware Approximate
Fri 04:07:32 AM 46.5373 -3.6099 57° Northeast  Level FlightAware Approximate
Fri 04:08:32 AM 46.6080 -3.4507 57° Northeast  Level FlightAware Approximate
Fri 04:09:32 AM 46.6784 -3.2912 57° Northeast  Level FlightAware Approximate
Fri 04:10:32 AM 46.7486 -3.1312 57° Northeast  Level FlightAware Approximate
Fri 04:11:32 AM 46.8186 -2.9708 58° Northeast  Level FlightAware Approximate
Fri 04:12:32 AM 46.8883 -2.8100 58° Northeast  Level FlightAware Approximate
Fri 04:13:32 AM 46.9579 -2.6488 58° Northeast  Level FlightAware Approximate
Fri 04:14:32 AM 47.0272 -2.4872 58° Northeast  Level FlightAware Approximate
Fri 04:15:32 AM 47.0962 -2.3251 58° Northeast  Level FlightAware Approximate
Fri 04:16:32 AM 47.1651 -2.1626 58° Northeast  Level FlightAware Approximate
Fri 04:17:32 AM 47.2337 -1.9997 58° Northeast  Level FlightAware Approximate
Fri 04:18:32 AM 47.3021 -1.8364 58° Northeast  Level FlightAware Approximate
Fri 04:19:32 AM 47.3702 -1.6726 59° Northeast  Level FlightAware Approximate
Fri 04:20:32 AM 47.4381 -1.5085 59° Northeast  Level FlightAware Approximate
Fri 04:21:32 AM 47.5058 -1.3439 59° Northeast  Level FlightAware Approximate
Fri 04:22:32 AM 47.5732 -1.1789 59° Northeast  Level FlightAware Approximate
Fri 04:23:32 AM 47.6404 -1.0134 59° Northeast  Level FlightAware Approximate
Fri 04:24:32 AM 47.7074 -0.8476 59° Northeast  Level FlightAware Approximate
Fri 04:25:32 AM 47.7742 -0.6813 59° Northeast  Level FlightAware Approximate
Fri 04:26:32 AM 47.8406 -0.5145 59° Northeast  Level FlightAware Approximate
Fri 04:27:32 AM 47.9069 -0.3474 59° Northeast  Level FlightAware Approximate
Fri 04:28:32 AM 47.9729 -0.1798 60° Northeast  Level FlightAware Approximate
Fri 04:29:32 AM 48.0387 -0.0118 60° Northeast  Level FlightAware Approximate
Fri 04:30:32 AM 48.1042 0.1566 60° Northeast  Level FlightAware Approximate
Fri 04:31:32 AM 48.1694 0.3255 60° Northeast  Level FlightAware Approximate
Fri 04:32:32 AM 48.2345 0.4947 60° Northeast  Level FlightAware Approximate
Fri 04:33:32 AM 48.2992 0.6645 60° Northeast  Level FlightAware Approximate
Fri 04:34:32 AM 48.3637 0.8346 60° Northeast  Level FlightAware Approximate
Fri 04:35:32 AM 48.4275 1.0039 60° Northeast  Level FlightAware Approximate
Fri 04:36:32 AM 48.4911 1.1737 61° Northeast  Level FlightAware Approximate
Fri 04:37:32 AM 48.5544 1.3439 61° Northeast  Level FlightAware Approximate
Fri 04:38:32 AM 48.6174 1.5145 61° Northeast  Level FlightAware Approximate
Fri 04:39:32 AM 48.6802 1.6855 61° Northeast  Level FlightAware Approximate
Fri 04:40:32 AM 48.7428 1.8570 74° East  Level FlightAware Approximate
Fri 04:41:32 AM 48.7789 2.0431 56° Northeast  Level FlightAware Approximate
Fri 04:42:32 AM 48.8508 2.2064 58° Northeast  Level FlightAware Approximate
Fri 04:43:32 AM 48.9188 2.3709 53° Northeast  Level FlightAware Approximate
Fri 04:44:32 AM 48.9971 2.5275 43° Northeast  Level FlightAware Approximate
Fri 04:45:32 AM 49.0912 2.6628 223° Southwest  Level Estimated
Fri 04:46:32 AM 49.0000 2.5333 41° Northeast  Level FlightAware Approximate
Fri 04:47:32 AM 49.0982 2.6617 221° Southwest  Level Estimated
Fri 04:48:32 AM 49.0000 2.5333 41° Northeast  Level FlightAware Approximate
Fri 04:49:32 AM 49.0982 2.6617 221° Southwest  Level Estimated
Fri 04:50:32 AM 49.0000 2.5333 41° Northeast  Level FlightAware Approximate
Fri 04:51:32 AM 49.0982 2.6617 221° Southwest  Level Estimated
Fri 04:52:32 AM 49.0000 2.5333 221° Southwest  Level FlightAware Approximate

Login

Don't have an account? Register now (free) for customized features, flight alerts, and more!